Collingswood, New Jersey
Current Conditions -  °F | °C
As of 5:54 AM on Sunday 23 Nov 2014 (Local Time) from KPHL Reporting Station
Broken Clouds Broken Clouds  
Wind Chill: 37°   Ceiling: 10000
Heat Index: 41°   Visibility: 10mi
Dew Point: 24°   Wind: 6mph
Humidity: 51%   Direction: 200°SSW
Pressure: 30.23"   Gusts: NA
Location:  39.92°N, 75.07°W
Report Text: KPHL 231054Z 20005KT 10SM BKN100 BKN250 05/M04 A3023 RMK AO2 SLP234 T00501044 $
Loading
Personal Weather Stations






























Interactive Weather Map New forecast layout! Learn more

10-Day Weather Forecast

Advertisements
Track Severe Weather on mobile